• Join FlightAware (Why Join?)
  • Login
  • US Flag 
09:19PM EDT


 

Airport Tracker/Info


-or-


 

Live Flight TrackerFlight Track Log ✈ GJS3710 ✈ 22-Jun-2013 ✈ KORD - KALB

Flight Track Log - Related Links

Times and Time Zones

All times are in EDT time to prevent confusion due to time zone crossing. See the GJS3710 flight status page for this flight to view local times or setup timezone preferences in your user account.

Time Position Orientation Groundspeed Altitude Reporting Facility
EDT Latitude Longitude Course Direction KTS MPH feet Rate Location/Type
08:53PM 41.9333 -87.9000 66° East 163 188 1,900  Level Chicago TRACON
08:54PM 41.9000 -87.8333 124° Southeast 226 260 3,500 1,740 Climbing Chicago TRACON
08:55PM 41.9000 -87.7500 90° East 281 323 5,300 1,440 Climbing Chicago TRACON
08:55PM 41.9000 -87.6500 90° East 299 344 6,100 1,560 Climbing Chicago TRACON
08:56PM 42.1599 -87.3705 66° East  Level FlightAware Approximate
08:57PM 42.2057 -87.2328 66° East  Level FlightAware Approximate
08:57PM 41.9667 -87.5667 43° Northeast 293 337 8,500  Level Chicago TRACON
08:58PM 42.2516 -87.0951 66° East  Level FlightAware Approximate
08:58PM 42.0325 -87.4514 52° Northeast 297 342 11,800  Level Chicago Center
08:59PM 42.0894 -87.3617 49° Northeast 315 362 13,300 1,320 Climbing Chicago Center
09:00PM 42.1539 -87.2581 50° Northeast 355 409 14,600 1,440 Climbing Chicago Center
09:01PM 42.2225 -87.1508 49° Northeast 377 434 16,400 1,680 Climbing Chicago Center
09:02PM 42.2792 -87.0286 58° Northeast 393 452 18,100 1,800 Climbing Chicago Center
09:03PM 42.2867 -86.8825 86° East 393 452 20,100 1,860 Climbing Chicago Center
09:04PM 42.2936 -86.7056 87° East 396 456 22,000 1,560 Climbing Chicago Center
09:05PM 42.2989 -86.5556 87° East 402 463 23,300 1,020 Climbing Chicago Center
09:06PM 42.3031 -86.4086 88° East 412 474 24,100 600 Climbing Chicago Center
09:07PM 42.3089 -86.2461 87° East 431 496 24,600 480 Climbing Chicago Center
09:08PM 42.3147 -86.0744 87° East 456 525 25,100 780 Climbing Chicago Center
09:09PM 42.3122 -85.8667 91° East 464 534 26,200 960 Climbing Chicago Center
09:10PM 42.3094 -85.6942 91° East 464 534 27,100 840 Climbing Chicago Center
09:11PM 42.3089 -85.5206 90° East 466 536 28,000 840 Climbing Chicago Center
09:12PM 42.3058 -85.3481 91° East 463 533 28,900 840 Climbing Chicago Center
09:13PM 42.3028 -85.1750 91° East 464 534 29,800 840 Climbing Chicago Center
09:14PM 42.2997 -85.0044 91° East 459 528 30,700 840 Climbing Chicago Center
09:15PM 42.2958 -84.8328 92° East 459 528 31,600 900 Climbing Chicago Center
09:16PM 42.2897 -84.6275 92° East 458 527 32,600 900 Climbing Chicago Center
09:17PM 42.2892 -84.4567 90° East 458 527 33,500 900 Climbing Chicago Center
09:18PM 42.2997 -84.3733 80° East 461 531 34,000 900 Climbing Cleveland Center
09:19PM 42.3217 -84.2061 80° East 456 525 34,900 900 Climbing Cleveland Center
09:20PM 42.3458 -84.0361 79° East 456 525 35,800 900 Climbing Cleveland Center
09:21PM 42.3692 -83.8772 79° East 450 518 36,700 900 Climbing Cleveland Center
09:22PM 42.3947 -83.7125 78° East 444 511 37,600 720 Climbing Cleveland Center
09:23PM 42.4069 -83.5642 84° East 444 511 38,200 600 Climbing Cleveland Center
09:24PM 42.4131 -83.4042 87° East 432 497 38,900 360 Climbing Cleveland Center
09:25PM 42.4192 -83.2411 87° East 426 490 39,000  Climbing Cleveland Center
09:26PM 42.4269 -83.0697 86° East 432 497 39,000  Level Cleveland Center
09:27PM 42.4306 -82.9069 88° East 437 503 39,000  Level Cleveland Center
09:28PM 42.4358 -82.7411 87° East 437 503 39,000  Level Cleveland Center
09:29PM 42.4408 -82.5753 88° East 437 503 39,000  Level Cleveland Center
09:30PM 42.4456 -82.4092 88° East 437 503 39,000  Level Cleveland Center
09:31PM 42.4481 -82.2461 89° East 437 503 39,000  Level Cleveland Center
09:32PM 42.4544 -82.1000 87° East 437 503 39,000  Level Cleveland Center
09:33PM 42.4608 -81.9058 87° East 436 502 39,000  Level Cleveland Center
09:34PM 42.4647 -81.7372 88° East 436 502 39,000  Level Cleveland Center
09:35PM 42.4664 -81.5711 89° East 436 502 39,000  Level Cleveland Center
09:36PM 42.4697 -81.4247 88° East 441 507 39,000  Level Cleveland Center
09:37PM 42.4750 -81.2561 88° East 441 507 39,000  Level Cleveland Center
09:38PM 42.4778 -81.0869 89° East 441 507 39,000  Level Cleveland Center
09:39PM 42.4783 -80.9181 90° East 446 513 39,000  Level Cleveland Center
09:40PM 42.4808 -80.7436 89° East 446 513 39,000  Level Cleveland Center
09:41PM 42.4831 -80.5633 89° East 446 513 39,000  Level Cleveland Center
09:42PM 42.4850 -80.3889 89° East 446 513 39,000  Level Cleveland Center
09:43PM 42.4867 -80.2200 89° East 446 513 39,000  Level Cleveland Center
09:44PM 42.4903 -80.0539 88° East 446 513 39,000  Level Cleveland Center
09:45PM 42.4914 -79.8878 89° East 441 507 39,000  Level Cleveland Center
09:46PM 42.4883 -79.7217 91° East 441 507 39,000  Level Cleveland Center
09:47PM 42.4931 -79.5556 88° East 441 507 39,000  Level Cleveland Center
09:48PM 42.4917 -79.3864 91° East 441 507 39,000  Level Cleveland Center
09:49PM 42.4958 -79.2203 88° East 441 507 39,000  Level Cleveland Center
09:50PM 42.5083 -79.0539 84° East 441 507 39,000  Level Cleveland Center
09:51PM 42.5186 -78.8903 85° East 441 507 39,000  Level Cleveland Center
09:52PM 42.5286 -78.7208 85° East 441 507 39,000  Level Cleveland Center
09:53PM 42.5403 -78.5542 85° East 441 507 39,000  Level Cleveland Center
09:54PM 42.5519 -78.3875 85° East 441 507 39,000  Level Cleveland Center
09:55PM 42.5611 -78.2208 86° East 441 507 39,000 -300 Level Cleveland Center
09:56PM 42.5700 -78.0514 86° East 441 507 38,500 -660 Descending Cleveland Center
09:57PM 42.5808 -77.8817 85° East 446 513 37,700 -900 Descending Cleveland Center
09:58PM 42.6144 -77.7194 74° East 446 513 36,800 -900 Descending Cleveland Center
09:59PM 42.6667 -77.5617 66° East 446 513 36,000 -780 Descending Cleveland Center
10:00PM 42.7106 -77.4128 68° East 459 528 35,300 -780 Descending Cleveland Center
10:01PM 42.7350 -77.2447 79° East 454 522 34,500 -780 Descending Cleveland Center
10:02PM 42.7369 -77.0344 89° East 456 525 33,600 -780 Descending Boston Center
10:03PM 42.7397 -76.8594 89° East 456 525 32,800 -840 Descending Boston Center
10:04PM 42.7444 -76.6814 88° East 461 531 32,000 -660 Descending Boston Center
10:05PM 42.7447 -76.5033 90° East 461 531 31,500 -900 Descending Boston Center
10:06PM 42.7481 -76.2886 89° East 466 536 30,100 -1,320 Descending Boston Center
10:07PM 42.7494 -76.1133 89° East 466 536 28,700 -1,500 Descending Boston Center
10:08PM 42.7508 -75.9381 89° East 455 524 27,200 -1,500 Descending Boston Center
10:09PM 42.7519 -75.7656 89° East 460 529 25,700 -1,740 Descending Boston Center
10:10PM 42.7525 -75.5958 90° East 454 522 23,800 -1,980 Descending Boston Center
10:11PM 42.7528 -75.4319 90° East 446 513 21,800 -2,040 Descending Boston Center
10:12PM 42.7550 -75.2708 89° East 434 499 19,800 -2,040 Descending Boston Center
10:13PM 42.7525 -75.1150 91° East 422 486 17,800 -1,980 Descending Boston Center
10:14PM 42.7539 -74.9625 89° East 410 472 15,900 -2,040 Descending Boston Center
10:15PM 42.7531 -74.7983 90° East 398 458 13,800 -2,100 Descending Boston Center
10:16PM 42.7531 -74.6967 90° East 387 445 12,400 -1,620 Descending Boston Center
10:17PM 42.7536 -74.5581 90° East 366 421 11,100 -900 Descending Boston Center
10:18PM 42.7622 -74.4281 85° East 335 386 10,700 -1,020 Descending Boston Center
10:19PM 42.7747 -74.3153 81° East 296 341 9,100 -1,680 Descending Boston Center
10:20PM 42.7889 -74.2056 80° East 293 337 7,400 -1,740 Descending Boston Center
10:21PM 42.8053 -74.0900 79° East 291 335 5,600 -1,800 Descending Boston Center
10:22PM 42.8233 -73.9858 77° East 283 326 3,800 -1,680 Descending Boston Center
10:23PM 42.8436 -73.8842 75° East 273 314 2,200 -1,020 Descending Boston Center
10:24PM 42.8361 -73.8133 98° East 174 200 1,800 -600 Descending Boston Center
10:25PM 42.7964 -73.8097 176° South 108 124 1,100 -660 Descending Boston Center
10:26PM 42.7631 -73.8061 175° South 117 135 500 -600 Descending Boston Center